Time;durP1;ratioP1;P1;durP2;ratioP2;P2;SDS_P1;SDS_P2;PMS_P1;PMS_P2;Temp;Humidity;BMP_temperature;BMP_pressure;BME280_temperature;BME280_humidity;BME280_pressure;Samples;Min_cycle;Max_cycle;Signal;HPM_P1;HPM_P2
2023/02/10 00:01:34;;;;;;;25.17;14.93;;;;;;;3.27;57.98;100601.63;5091707;28;20046;-46
2023/02/10 00:04:01;;;;;;;28.83;18.42;;;;;;;3.17;57.74;100600.59;5090989;28;20016;-46
2023/02/10 00:06:27;;;;;;;29.23;18.35;;;;;;;3.14;58.61;100603.41;5092244;28;20028;-46
2023/02/10 00:08:57;;;;;;;29.80;19.20;;;;;;;2.99;58.20;100611.28;5090841;28;20049;-46
2023/02/10 00:14:12;;;;;;;25.67;16.60;;;;;;;2.85;59.00;100619.19;5092153;28;20094;-47
2023/02/10 00:16:39;;;;;;;28.08;16.65;;;;;;;2.77;57.03;100619.69;5090742;28;20086;-46
2023/02/10 00:19:26;;;;;;;21.67;13.77;;;;;;;2.43;57.92;100628.03;5088295;28;20036;-48
2023/02/10 00:21:58;;;;;;;23.45;13.00;;;;;;;2.19;58.68;100626.09;5090647;28;20027;-47
2023/02/10 00:24:31;;;;;;;29.98;15.68;;;;;;;2.09;59.22;100631.00;5073882;28;20078;-47
2023/02/10 00:27:03;;;;;;;28.13;17.55;;;;;;;2.00;59.60;100621.25;5091931;28;20602;-47
2023/02/10 00:29:31;;;;;;;32.90;19.75;;;;;;;1.97;60.03;100629.22;5090563;28;20050;-47
2023/02/10 00:32:00;;;;;;;34.97;17.33;;;;;;;1.86;60.60;100634.25;5091589;28;20480;-47
2023/02/10 00:34:45;;;;;;;31.13;21.15;;;;;;;1.78;60.73;100632.94;5091847;28;20042;-47
2023/02/10 00:37:12;;;;;;;28.10;19.00;;;;;;;1.72;60.71;100632.50;5091906;28;20493;-47
2023/02/10 00:39:39;;;;;;;31.50;18.38;;;;;;;1.78;60.93;100635.53;5090519;28;20181;-47
2023/02/10 00:42:18;;;;;;;25.45;16.20;;;;;;;1.78;59.79;100638.13;5091732;28;20432;-47
2023/02/10 00:44:56;;;;;;;26.58;14.95;;;;;;;1.66;59.95;100636.31;5090459;28;20020;-48
2023/02/10 00:47:26;;;;;;;26.10;15.35;;;;;;;1.42;60.18;100633.47;5090378;28;20035;-47
2023/02/10 00:50:04;;;;;;;24.60;14.18;;;;;;;1.29;62.46;100633.38;5091649;28;20020;-48
2023/02/10 00:52:35;;;;;;;25.95;14.85;;;;;;;1.49;61.53;100645.13;5090673;28;20424;-47
2023/02/10 00:55:06;;;;;;;23.85;14.40;;;;;;;1.38;60.67;100643.16;5091643;28;20027;-46
2023/02/10 00:57:39;;;;;;;28.25;17.02;;;;;;;1.20;61.35;100650.25;5090336;28;20032;-47
2023/02/10 01:00:10;;;;;;;25.80;15.23;;;;;;;1.03;62.01;100649.59;5090355;28;20028;-47
2023/02/10 01:02:36;;;;;;;42.45;19.00;;;;;;;1.00;62.63;100655.78;5090330;28;20032;-47
2023/02/10 01:05:12;;;;;;;31.73;18.48;;;;;;;1.10;62.93;100656.09;5091616;28;20016;-47
2023/02/10 01:07:55;;;;;;;28.58;17.70;;;;;;;1.27;63.09;100652.47;5090226;28;20028;-47
2023/02/10 01:10:34;;;;;;;32.80;18.70;;;;;;;1.45;62.93;100655.72;5091391;28;20059;-46
2023/02/10 01:13:33;;;;;;;31.25;18.35;;;;;;;1.54;62.65;100656.00;5092216;28;20050;-48
2023/02/10 01:16:12;;;;;;;26.10;15.57;;;;;;;1.44;61.78;100648.91;5095330;28;20024;-47
2023/02/10 01:19:03;;;;;;;23.50;15.70;;;;;;;1.28;61.51;100643.81;5095287;28;20036;-46
2023/02/10 01:21:31;;;;;;;25.90;15.52;;;;;;;1.25;61.52;100643.97;5095349;28;20024;-46
2023/02/10 01:24:07;;;;;;;28.25;16.92;;;;;;;1.14;61.51;100642.06;5093991;28;20501;-47
2023/02/10 01:26:35;;;;;;;;;;;;;;;1.07;62.05;100641.59;5095827;28;20051;-47
2023/02/10 01:29:14;;;;;;;29.35;16.38;;;;;;;1.04;62.49;100641.75;5095132;28;20373;-47
2023/02/10 01:31:51;;;;;;;31.08;17.02;;;;;;;1.07;62.40;100641.59;5095393;28;20432;-48
2023/02/10 01:34:29;;;;;;;27.73;16.42;;;;;;;1.24;62.09;100642.34;5092004;28;20079;-48
2023/02/10 01:37:06;;;;;;;23.73;15.60;;;;;;;1.15;61.59;100630.81;5095043;28;20102;-47
2023/02/10 01:39:47;;;;;;;27.98;16.90;;;;;;;0.98;62.08;100634.38;5094961;28;20143;-47
2023/02/10 01:42:25;;;;;;;29.13;16.05;;;;;;;1.00;61.97;100632.53;5093573;28;20538;-48
2023/02/10 01:45:55;;;;;;;28.60;15.88;;;;;;;1.03;61.87;100636.66;5094759;28;20020;-47
2023/02/10 01:48:39;;;;;;;35.60;19.13;;;;;;;1.22;62.37;100636.44;5015693;28;20098;-47
2023/02/10 01:51:45;;;;;;;34.92;20.83;;;;;;;1.17;63.81;100634.13;5032348;28;20036;-48
2023/02/10 01:55:00;;;;;;;33.83;16.42;;;;;;;1.23;62.69;100638.94;5032291;28;20033;-46
2023/02/10 01:57:45;;;;;;;27.40;18.27;;;;;;;1.12;62.18;100641.31;5032151;28;20108;-47
2023/02/10 02:00:34;;;;;;;29.58;19.95;;;;;;;0.85;62.50;100642.03;5032205;28;20041;-47
2023/02/10 02:03:07;;;;;;;26.65;18.33;;;;;;;0.59;63.69;100646.94;5032175;28;20037;-47
2023/02/10 02:05:42;;;;;;;25.38;13.85;;;;;;;0.68;64.53;100644.75;5015427;28;20030;-47
2023/02/10 02:08:43;;;;;;;21.40;13.18;;;;;;;0.87;63.52;100639.34;5015429;28;20065;-47
2023/02/10 02:12:03;;;;;;;32.25;18.27;;;;;;;0.90;63.32;100641.75;5015432;28;20045;-46
2023/02/10 02:14:55;;;;;;;26.63;15.30;;;;;;;0.90;62.57;100642.56;5015331;28;20107;-46
2023/02/10 02:17:35;;;;;;;22.23;14.68;;;;;;;0.89;62.22;100648.69;5031954;28;20112;-46
2023/02/10 02:20:42;;;;;;;30.80;18.70;;;;;;;0.90;62.75;100639.16;5015277;28;20091;-46
2023/02/10 02:23:49;;;;;;;37.40;21.00;;;;;;;0.87;63.34;100644.53;5094193;28;20478;-46
2023/02/10 02:26:37;;;;;;;38.50;23.02;;;;;;;0.98;62.84;100642.13;5093757;28;20127;-46
2023/02/10 02:29:53;;;;;;;27.48;16.70;;;;;;;1.08;62.00;100643.25;5094059;28;20024;-47
2023/02/10 02:32:57;;;;;;;25.50;15.85;;;;;;;0.86;61.70;100643.66;5093929;28;20451;-46
2023/02/10 02:35:48;;;;;;;28.48;19.27;;;;;;;0.67;63.05;100636.16;5053669;28;20041;-47
2023/02/10 02:38:26;;;;;;;30.42;17.95;;;;;;;0.45;63.22;100640.91;5052363;28;20021;-48
2023/02/10 02:41:12;;;;;;;27.80;17.30;;;;;;;0.47;63.62;100645.06;5053554;28;20491;-47
2023/02/10 02:43:47;;;;;;;25.65;16.35;;;;;;;0.59;63.28;100640.94;5053929;28;20027;-47
2023/02/10 02:47:02;;;;;;;26.35;14.75;;;;;;;0.61;63.78;100633.94;5053540;28;20021;-46
2023/02/10 02:50:15;;;;;;;26.20;15.25;;;;;;;0.67;63.38;100637.94;5052102;28;20021;-47
2023/02/10 02:53:42;;;;;;;76.93;21.83;;;;;;;0.80;63.70;100644.03;5053424;28;20553;-46
2023/02/10 02:57:18;;;;;;;32.90;19.65;;;;;;;0.85;63.21;100636.03;5052067;28;20040;-47
2023/02/10 03:00:25;;;;;;;30.55;14.98;;;;;;;0.86;62.69;100641.09;5030145;28;20274;-47
2023/02/10 03:03:01;;;;;;;33.42;16.38;;;;;;;0.76;62.80;100643.38;5014654;28;20434;-46
2023/02/10 03:05:43;;;;;;;22.75;15.55;;;;;;;0.67;62.64;100645.69;5030996;28;20022;-47
2023/02/10 03:08:23;;;;;;;28.60;17.50;;;;;;;0.62;63.37;100634.75;5030923;28;20076;-47
2023/02/10 03:11:04;;;;;;;30.42;17.05;;;;;;;0.66;63.67;100636.25;5014132;28;20037;-47
2023/02/10 03:13:39;;;;;;;29.85;17.98;;;;;;;0.67;63.60;100648.25;5014189;28;20033;-46
2023/02/10 03:16:18;;;;;;;27.58;16.63;;;;;;;0.71;63.27;100649.75;5030847;28;20112;-47
2023/02/10 03:18:48;;;;;;;27.13;17.42;;;;;;;0.56;62.76;100647.13;5030760;28;20025;-47
2023/02/10 03:21:30;;;;;;;33.25;17.80;;;;;;;0.52;63.55;100649.94;5014032;28;20124;-47
2023/02/10 03:24:02;;;;;;;27.75;18.48;;;;;;;0.65;63.70;100643.19;5014123;28;20033;-46
2023/02/10 03:26:38;;;;;;;29.98;18.48;;;;;;;0.62;63.65;100645.09;5013733;28;20088;-48
2023/02/10 03:29:17;;;;;;;23.42;15.48;;;;;;;0.56;63.28;100641.09;5013924;28;20579;-47
2023/02/10 03:32:01;;;;;;;23.08;15.02;;;;;;;0.46;62.50;100637.38;5030434;28;20147;-47
2023/02/10 03:34:40;;;;;;;27.02;16.88;;;;;;;0.26;62.39;100625.59;5085845;28;20059;-46
2023/02/10 03:37:18;;;;;;;27.60;16.55;;;;;;;0.21;63.59;100630.19;5090585;28;20052;-46
2023/02/10 03:39:44;;;;;;;27.67;17.93;;;;;;;0.12;63.27;100636.69;5092701;28;20036;-44
2023/02/10 03:42:30;;;;;;;28.33;16.73;;;;;;;0.04;63.86;100631.97;5091396;28;20257;-44
2023/02/10 03:44:57;;;;;;;29.45;15.98;;;;;;;0.19;64.24;100631.09;5092854;28;20039;-44
2023/02/10 03:47:45;;;;;;;28.75;17.85;;;;;;;0.25;63.63;100635.09;5091157;28;20043;-45
2023/02/10 03:50:11;;;;;;;28.95;17.92;;;;;;;0.22;63.92;100637.00;5092389;28;20054;-44
2023/02/10 03:53:14;;;;;;;31.65;20.30;;;;;;;0.23;63.32;100639.53;5091418;28;20414;-45
2023/02/10 03:55:53;;;;;;;31.77;17.98;;;;;;;0.05;63.38;100637.97;5091027;28;20023;-46
2023/02/10 03:58:30;;;;;;;29.52;18.40;;;;;;;0.03;63.59;100642.38;5091116;28;20028;-45
2023/02/10 04:01:39;;;;;;;31.27;19.73;;;;;;;-0.01;64.06;100650.28;5092226;28;20028;-45
2023/02/10 04:04:24;;;;;;;28.05;16.60;;;;;;;-0.09;64.74;100649.03;5092238;28;20024;-44
2023/02/10 04:07:07;;;;;;;30.67;15.77;;;;;;;0.05;63.50;100649.13;5092476;28;20394;-44
2023/02/10 04:09:41;;;;;;;27.45;17.52;;;;;;;0.12;64.06;100640.13;5092374;28;20406;-44
2023/02/10 04:12:22;;;;;;;26.25;14.88;;;;;;;0.37;63.14;100646.50;5090875;28;20028;-45
2023/02/10 04:14:49;;;;;;;27.90;16.08;;;;;;;0.31;62.13;100646.84;5090763;28;20451;-44
2023/02/10 04:17:16;;;;;;;25.48;15.45;;;;;;;0.19;62.54;100653.53;5092205;28;20509;-44
2023/02/10 04:19:43;;;;;;;33.50;18.95;;;;;;;0.09;62.97;100653.19;5092160;28;20439;-44
2023/02/10 04:22:10;;;;;;;31.60;17.58;;;;;;;0.01;63.30;100657.94;5092041;28;20022;-44
2023/02/10 04:24:40;;;;;;;38.55;19.58;;;;;;;0.05;63.37;100654.28;5090967;28;20036;-45
2023/02/10 04:27:07;;;;;;;28.10;17.33;;;;;;;0.22;63.63;100648.16;5091956;28;20024;-44
2023/02/10 04:29:40;;;;;;;30.00;17.90;;;;;;;0.28;63.48;100657.34;5091909;28;20030;-44
2023/02/10 04:32:13;;;;;;;30.98;17.83;;;;;;;0.34;63.24;100662.16;5091904;28;20047;-44
2023/02/10 04:34:43;;;;;;;31.67;17.65;;;;;;;0.37;62.46;100656.81;5089148;28;20040;-44
2023/02/10 04:37:10;;;;;;;32.35;19.83;;;;;;;0.25;62.96;100660.09;5091917;28;20081;-44
2023/02/10 04:40:00;;;;;;;29.92;20.38;;;;;;;0.04;63.64;100665.53;5091872;28;20020;-44
2023/02/10 04:42:39;;;;;;;32.80;20.00;;;;;;;-0.23;64.14;100673.81;5091876;28;20386;-45
2023/02/10 04:45:16;;;;;;;34.45;20.75;;;;;;;-0.35;65.25;100679.63;5091796;28;20020;-46
2023/02/10 04:47:46;;;;;;;32.53;22.10;;;;;;;-0.56;65.37;100673.00;5093419;28;20028;-45
2023/02/10 04:50:25;;;;;;;40.65;20.83;;;;;;;-0.62;66.00;100679.34;5095911;28;20027;-46
2023/02/10 04:53:07;;;;;;;39.90;22.27;;;;;;;-0.76;66.27;100679.22;5094605;28;20024;-45
2023/02/10 04:55:48;;;;;;;26.05;17.60;;;;;;;-0.70;66.30;100684.06;5095651;28;20397;-45
2023/02/10 04:58:32;;;;;;;33.40;20.77;;;;;;;-0.51;66.03;100678.78;5094450;28;20028;-46
2023/02/10 05:01:09;;;;;;;30.25;14.90;;;;;;;-0.27;65.59;100680.06;5095720;28;20020;-46
2023/02/10 05:03:44;;;;;;;34.10;20.27;;;;;;;-0.11;65.25;100677.50;5095710;28;20024;-44
2023/02/10 05:06:19;;;;;;;30.10;19.33;;;;;;;-0.02;64.68;100679.59;5095681;28;20028;-46
2023/02/10 05:08:51;;;;;;;30.65;19.30;;;;;;;0.06;64.89;100668.88;5095575;28;20016;-44
2023/02/10 05:11:24;;;;;;;28.35;18.20;;;;;;;0.18;64.71;100673.34;5094270;28;20078;-45
2023/02/10 05:13:53;;;;;;;43.45;22.15;;;;;;;0.21;64.32;100682.66;5094162;28;20112;-44
2023/02/10 05:16:31;;;;;;;31.80;19.20;;;;;;;-0.08;64.89;100687.69;5095390;28;20031;-46
2023/02/10 05:19:01;;;;;;;33.40;20.35;;;;;;;-0.08;65.79;100686.81;5095404;28;20039;-45
2023/02/10 05:21:26;;;;;;;31.42;18.83;;;;;;;0.05;65.03;100689.59;5095314;28;20385;-44
2023/02/10 05:24:04;;;;;;;33.00;19.48;;;;;;;0.17;64.26;100686.34;5094027;28;20024;-45
2023/02/10 05:26:40;;;;;;;27.42;17.17;;;;;;;0.21;63.71;100687.00;5095153;28;20020;-46
2023/02/10 05:29:14;;;;;;;29.90;18.75;;;;;;;0.05;63.83;100689.59;5095161;28;20107;-45
2023/02/10 05:31:51;;;;;;;32.15;17.13;;;;;;;-0.13;63.33;100691.41;5095111;28;20081;-45
2023/02/10 05:34:19;;;;;;;28.55;17.40;;;;;;;-0.22;64.42;100687.59;5092080;28;20051;-45
2023/02/10 05:36:45;;;;;;;38.20;20.60;;;;;;;-0.29;64.43;100688.81;5095074;28;20031;-44
2023/02/10 05:42:08;;;;;;;34.13;22.13;;;;;;;-0.37;64.46;100696.13;5095196;28;20035;-46
2023/02/10 05:44:38;;;;;;;30.88;17.95;;;;;;;-0.44;64.57;100690.47;5094961;28;20035;-45
2023/02/10 05:47:05;;;;;;;40.55;19.13;;;;;;;-0.23;64.90;100694.47;5093539;28;20031;-44
2023/02/10 05:49:50;;;;;;;40.38;21.25;;;;;;;-0.20;64.39;100690.91;5093431;28;20073;-44
2023/02/10 05:52:17;;;;;;;33.80;21.70;;;;;;;-0.27;64.55;100710.19;5094863;28;20107;-44
2023/02/10 05:54:46;;;;;;;28.80;18.35;;;;;;;-0.24;65.23;100707.47;5093463;28;20081;-44
2023/02/10 05:57:25;;;;;;;32.58;18.02;;;;;;;-0.13;64.31;100709.47;5093270;28;20032;-45
2023/02/10 05:59:52;;;;;;;34.38;18.23;;;;;;;0.03;64.29;100697.41;5092329;28;20039;-44
2023/02/10 06:02:26;;;;;;;29.77;18.45;;;;;;;-0.04;62.51;100707.25;5094530;28;20024;-45
2023/02/10 06:04:56;;;;;;;34.45;20.20;;;;;;;-0.21;63.08;100702.13;5094560;28;20145;-45
2023/02/10 06:07:23;;;;;;;26.58;16.92;;;;;;;-0.25;63.63;100710.94;5094524;28;20055;-44
2023/02/10 06:09:52;;;;;;;32.20;18.70;;;;;;;-0.35;63.41;100705.44;5090257;28;20562;-45
2023/02/10 06:12:21;;;;;;;32.35;17.63;;;;;;;-0.35;63.86;100704.63;5094352;28;20229;-44
2023/02/10 06:14:48;;;;;;;30.58;18.25;;;;;;;-0.27;64.47;100708.44;5093033;28;20031;-44
2023/02/10 06:17:14;;;;;;;36.80;21.00;;;;;;;-0.24;63.37;100715.22;5094560;28;20035;-44
2023/02/10 06:19:41;;;;;;;31.92;22.58;;;;;;;-0.38;64.04;100710.78;5092986;28;20028;-44
2023/02/10 06:22:09;;;;;;;30.00;19.17;;;;;;;-0.37;65.01;100719.34;5092898;28;20032;-44
2023/02/10 06:24:36;;;;;;;35.20;22.40;;;;;;;-0.36;64.64;100724.41;5092837;28;20508;-44
2023/02/10 06:27:03;;;;;;;37.30;21.40;;;;;;;-0.48;65.36;100731.03;5092758;28;20063;-44
2023/02/10 06:29:30;;;;;;;39.42;22.55;;;;;;;-0.47;64.48;100724.97;5092845;28;20023;-44
2023/02/10 06:31:57;;;;;;;33.83;21.65;;;;;;;-0.67;65.18;100725.97;5094068;28;20026;-44
2023/02/10 06:34:24;;;;;;;39.55;22.95;;;;;;;-0.68;65.08;100729.47;5092451;28;20042;-44
2023/02/10 06:37:10;;;;;;;39.75;22.65;;;;;;;-0.72;65.23;100732.31;5094006;28;20435;-44
2023/02/10 06:39:37;;;;;;;36.67;22.60;;;;;;;-0.76;66.23;100736.78;5093969;28;20054;-44
2023/02/10 06:42:04;;;;;;;38.50;23.40;;;;;;;-0.86;65.97;100733.81;5093853;28;20028;-44
2023/02/10 06:44:31;;;;;;;35.90;22.83;;;;;;;-0.85;66.58;100725.16;5092528;28;20032;-44
2023/02/10 06:46:59;;;;;;;41.92;23.65;;;;;;;-0.75;66.22;100740.19;5093671;28;20028;-44
2023/02/10 06:49:25;;;;;;;49.28;24.88;;;;;;;-0.78;66.10;100738.59;5093611;28;20026;-44
2023/02/10 06:51:54;;;;;;;38.75;20.77;;;;;;;-0.71;66.58;100734.78;5093695;28;20051;-44
2023/02/10 06:54:21;;;;;;;41.70;21.75;;;;;;;-0.53;65.51;100743.31;5092292;28;20129;-44
2023/02/10 06:56:49;;;;;;;34.65;20.02;;;;;;;-0.47;64.44;100743.00;5092226;28;20027;-44
2023/02/10 06:59:16;;;;;;;59.78;26.67;;;;;;;-0.47;64.56;100742.19;5092172;28;20032;-44
2023/02/10 07:01:43;;;;;;;46.72;21.38;;;;;;;-0.37;65.22;100747.72;5093424;28;20436;-44
2023/02/10 07:04:10;;;;;;;53.60;25.90;;;;;;;-0.21;64.32;100749.41;5092105;28;20059;-44
2023/02/10 07:06:38;;;;;;;44.55;22.10;;;;;;;0.10;64.58;100745.22;5092009;28;20028;-44
2023/02/10 07:09:06;;;;;;;47.72;23.63;;;;;;;0.32;64.00;100744.03;5093266;28;20065;-44
2023/02/10 07:11:33;;;;;;;38.45;22.92;;;;;;;0.51;63.49;100739.53;5093129;28;20493;-44
2023/02/10 07:14:01;;;;;;;35.90;21.10;;;;;;;0.89;62.65;100752.06;5093097;28;20070;-44
2023/02/10 07:16:30;;;;;;;39.17;22.38;;;;;;;1.22;61.71;100748.47;5091848;28;20034;-44
2023/02/10 07:18:57;;;;;;;44.25;26.02;;;;;;;1.53;60.86;100741.47;5093037;28;20055;-44
2023/02/10 07:21:24;;;;;;;41.25;24.23;;;;;;;1.68;60.25;100739.75;5093008;28;20043;-46
2023/02/10 07:24:02;;;;;;;38.63;22.38;;;;;;;2.30;59.59;100740.22;5093060;28;20043;-47
2023/02/10 07:26:29;;;;;;;41.03;22.70;;;;;;;2.49;56.00;100731.28;5092861;28;20135;-46
2023/02/10 07:29:06;;;;;;;36.25;23.80;;;;;;;2.26;56.30;100736.16;5092847;28;20103;-47
2023/02/10 07:31:44;;;;;;;41.22;23.80;;;;;;;1.85;57.53;100746.47;5092794;28;20028;-47
2023/02/10 07:34:29;;;;;;;39.42;25.40;;;;;;;1.86;58.75;100751.56;5090221;28;20123;-47
2023/02/10 07:37:13;;;;;;;40.42;26.55;;;;;;;2.36;58.05;100749.38;5092647;28;20036;-46
2023/02/10 07:39:55;;;;;;;41.28;27.55;;;;;;;2.70;56.10;100747.25;5091461;28;20043;-47
2023/02/10 07:42:21;;;;;;;33.95;22.88;;;;;;;2.76;55.89;100755.44;5092634;28;20028;-47
2023/02/10 07:44:48;;;;;;;47.00;30.33;;;;;;;3.22;55.20;100755.97;5092710;28;20016;-46
2023/02/10 07:47:15;;;;;;;53.50;25.83;;;;;;;3.20;54.97;100758.69;5091254;28;20102;-46
2023/02/10 07:49:43;;;;;;;44.67;23.50;;;;;;;3.17;54.75;100761.47;5092437;28;20086;-46
2023/02/10 07:52:09;;;;;;;42.63;23.98;;;;;;;3.16;54.12;100767.59;5091176;28;20028;-46
2023/02/10 07:54:36;;;;;;;42.95;24.90;;;;;;;3.33;53.44;100759.50;5092507;28;20097;-46
2023/02/10 07:57:03;;;;;;;43.95;27.73;;;;;;;3.70;53.13;100756.19;5092454;28;20024;-46
2023/02/10 07:59:30;;;;;;;42.97;26.52;;;;;;;3.75;53.07;100764.50;5091041;28;20027;-46
2023/02/10 08:01:57;;;;;;;46.20;28.63;;;;;;;4.00;53.51;100758.44;5090956;28;20089;-46
2023/02/10 08:04:24;;;;;;;40.63;25.63;;;;;;;4.30;53.16;100768.47;5092337;28;20107;-46
2023/02/10 08:06:51;;;;;;;41.97;23.75;;;;;;;4.76;52.64;100756.53;5092291;28;20020;-46
2023/02/10 08:09:19;;;;;;;37.75;22.20;;;;;;;5.31;49.59;100757.69;5092177;28;20024;-46
2023/02/10 08:11:45;;;;;;;35.72;21.52;;;;;;;5.60;48.50;100754.66;5092146;28;20036;-46
2023/02/10 08:14:12;;;;;;;44.72;24.45;;;;;;;6.06;48.07;100751.13;5092101;28;20366;-46
2023/02/10 08:16:39;;;;;;;45.67;26.35;;;;;;;6.58;48.31;100751.38;5092177;28;20383;-46
2023/02/10 08:19:06;;;;;;;37.50;24.50;;;;;;;6.92;46.74;100757.31;5090767;28;20047;-46
2023/02/10 08:21:34;;;;;;;42.15;26.95;;;;;;;7.22;46.75;100754.91;5091851;28;20023;-46
2023/02/10 08:24:01;;;;;;;45.45;24.45;;;;;;;7.49;46.32;100768.28;5091886;28;20023;-47
2023/02/10 08:26:28;;;;;;;39.95;25.15;;;;;;;8.28;45.52;100764.19;5091991;28;20024;-47
2023/02/10 08:28:58;;;;;;;53.85;25.95;;;;;;;8.97;43.15;100763.31;5091921;28;20047;-47
2023/02/10 08:31:27;;;;;;;46.35;27.23;;;;;;;9.48;42.67;100762.16;5091804;28;20156;-47
2023/02/10 08:33:54;;;;;;;47.67;24.95;;;;;;;9.85;41.11;100761.34;5090299;28;20043;-47
2023/02/10 08:36:23;;;;;;;40.95;27.10;;;;;;;10.46;40.77;100756.50;5092147;28;20020;-47
2023/02/10 08:38:51;;;;;;;40.83;27.45;;;;;;;11.22;39.35;100757.84;5091879;28;20032;-47
2023/02/10 08:41:18;;;;;;;49.88;28.92;;;;;;;12.06;38.56;100754.53;5091831;28;20020;-47
2023/02/10 08:43:46;;;;;;;45.50;28.63;;;;;;;12.69;37.46;100763.75;5091801;28;20028;-47
2023/02/10 08:46:13;;;;;;;57.50;29.13;;;;;;;13.16;36.72;100755.22;5092016;28;20452;-48
2023/02/10 08:48:40;;;;;;;50.45;29.67;;;;;;;13.58;35.73;100762.09;5091745;28;20119;-47
2023/02/10 08:51:09;;;;;;;49.25;27.95;;;;;;;14.13;35.50;100760.41;5091671;28;20069;-47
2023/02/10 08:53:36;;;;;;;51.03;29.75;;;;;;;14.82;34.51;100758.88;5091744;28;20087;-47
2023/02/10 08:56:07;;;;;;;46.85;29.13;;;;;;;15.34;33.65;100764.22;5091668;28;20051;-46
2023/02/10 08:58:34;;;;;;;52.58;32.47;;;;;;;15.42;32.71;100758.03;5090440;28;20036;-46
2023/02/10 09:01:12;;;;;;;42.17;31.10;;;;;;;15.44;32.37;100765.78;5090374;28;20127;-46
2023/02/10 09:03:40;;;;;;;46.38;31.10;;;;;;;14.63;31.96;100763.66;5091669;28;20101;-45
2023/02/10 09:06:27;;;;;;;40.78;28.58;;;;;;;13.76;32.16;100766.31;5090322;28;20020;-45
2023/02/10 09:08:56;;;;;;;40.40;30.77;;;;;;;13.74;34.00;100769.16;5091533;28;20036;-45
2023/02/10 09:11:23;;;;;;;44.00;31.40;;;;;;;14.30;33.54;100766.44;5091587;28;20180;-45
2023/02/10 09:13:51;;;;;;;44.38;31.95;;;;;;;13.87;33.25;100762.50;5090217;28;20024;-45
2023/02/10 09:16:18;;;;;;;41.67;31.77;;;;;;;13.65;33.94;100764.88;5091530;28;20027;-45
2023/02/10 09:18:45;;;;;;;49.17;31.13;;;;;;;13.98;32.96;100768.25;5091437;28;20032;-46
2023/02/10 09:21:12;;;;;;;41.42;29.80;;;;;;;14.11;32.29;100762.41;5090167;28;20116;-45
2023/02/10 09:23:39;;;;;;;48.72;31.00;;;;;;;14.33;32.57;100768.75;5091498;28;20031;-45
2023/02/10 09:26:06;;;;;;;48.63;30.15;;;;;;;14.73;32.37;100763.41;5091299;28;20020;-45
2023/02/10 09:28:35;;;;;;;39.85;28.33;;;;;;;15.18;32.04;100762.53;5091351;28;20108;-46
2023/02/10 09:31:06;;;;;;;34.78;27.33;;;;;;;15.71;31.24;100759.84;5091294;28;20386;-46
2023/02/10 09:33:35;;;;;;;40.47;28.58;;;;;;;16.34;30.64;100767.41;5091105;28;20111;-45
2023/02/10 09:36:20;;;;;;;34.40;28.10;;;;;;;16.60;29.83;100760.72;5093501;28;20032;-46
2023/02/10 09:38:59;;;;;;;40.53;28.65;;;;;;;16.84;29.74;100763.06;5077066;28;20046;-46
2023/02/10 09:41:56;;;;;;;34.83;27.35;;;;;;;16.96;29.39;100771.28;5094959;28;20031;-47
2023/02/10 09:44:49;;;;;;;43.80;29.15;;;;;;;17.24;28.68;100763.34;5095003;28;20447;-46
2023/02/10 09:47:50;;;;;;;45.17;28.08;;;;;;;17.49;28.24;100773.56;5094901;28;20413;-47
2023/02/10 09:50:54;;;;;;;39.47;26.90;;;;;;;17.42;28.34;100773.50;5093495;28;20028;-46
2023/02/10 09:53:31;;;;;;;31.73;26.48;;;;;;;17.46;27.50;100776.59;5094769;28;20032;-45
2023/02/10 09:56:04;;;;;;;34.35;25.15;;;;;;;17.44;27.58;100778.63;5094692;28;20472;-45
2023/02/10 09:58:52;;;;;;;42.63;28.90;;;;;;;17.54;27.49;100790.53;5094754;28;20028;-46
2023/02/10 10:01:32;;;;;;;34.92;27.02;;;;;;;17.83;26.95;100794.03;5093406;28;20024;-46
2023/02/10 10:04:42;;;;;;;43.17;27.20;;;;;;;17.94;27.53;100805.91;5094676;28;20031;-46
2023/02/10 10:07:35;;;;;;;38.67;26.95;;;;;;;18.22;26.95;100807.69;5093275;28;20048;-46
2023/02/10 10:10:51;;;;;;;70.93;35.13;;;;;;;18.29;26.72;100805.84;5093084;28;20024;-47
2023/02/10 10:13:40;;;;;;;45.35;32.58;;;;;;;18.22;26.48;100805.84;5093165;28;20161;-46
2023/02/10 10:16:16;;;;;;;36.42;23.20;;;;;;;17.97;26.48;100808.19;5093109;28;20036;-46
2023/02/10 10:19:09;;;;;;;31.88;21.50;;;;;;;18.24;26.37;100806.47;5094407;28;20035;-45
2023/02/10 10:21:57;;;;;;;37.03;23.73;;;;;;;18.12;26.04;100800.88;5090971;28;20063;-46
2023/02/10 10:24:54;;;;;;;32.10;23.83;;;;;;;18.41;26.28;100798.97;5094261;28;20055;-46
2023/02/10 10:27:46;;;;;;;34.83;25.75;;;;;;;18.88;26.14;100805.25;5094180;28;20099;-46
2023/02/10 10:31:08;;;;;;;46.90;25.50;;;;;;;19.57;25.83;100800.50;5094079;28;20024;-46
2023/02/10 10:34:09;;;;;;;44.38;26.52;;;;;;;19.90;24.94;100804.97;5093255;28;20030;-47
2023/02/10 10:37:00;;;;;;;34.38;24.13;;;;;;;19.87;24.91;100802.75;5093862;28;20039;-46
2023/02/10 10:39:46;;;;;;;44.28;27.30;;;;;;;19.87;24.91;100800.88;5093997;28;20032;-46
2023/02/10 10:42:58;;;;;;;32.17;24.15;;;;;;;19.48;24.88;100797.25;5092511;28;20020;-46
2023/02/10 10:46:16;;;;;;;27.48;24.13;;;;;;;19.48;25.28;100801.78;5093284;28;20657;-46
2023/02/10 10:48:45;;;;;;;50.50;26.60;;;;;;;19.47;24.82;100792.13;5053117;28;20042;-47
2023/02/10 10:51:30;;;;;;;46.00;25.60;;;;;;;19.25;25.45;100788.88;5093453;28;20027;-46
2023/02/10 10:54:18;;;;;;;32.85;25.70;;;;;;;19.12;25.27;100790.53;5092283;28;20181;-47
2023/02/10 10:57:00;;;;;;;41.05;26.45;;;;;;;18.66;25.59;100785.94;5093639;28;20039;-46
2023/02/10 11:00:02;;;;;;;32.20;26.73;;;;;;;18.36;25.88;100790.75;5093570;28;20111;-47
2023/02/10 11:02:30;;;;;;;32.10;25.35;;;;;;;17.83;26.58;100791.38;5093530;28;20397;-46
2023/02/10 11:05:37;;;;;;;36.97;29.67;;;;;;;17.19;27.50;100802.13;5093431;28;20016;-46
2023/02/10 11:08:05;;;;;;;35.10;27.92;;;;;;;16.71;28.12;100800.81;5092110;28;20073;-45
2023/02/10 11:11:09;;;;;;;30.48;26.38;;;;;;;16.47;28.46;100786.09;5093262;28;20024;-46
2023/02/10 11:13:40;;;;;;;38.22;27.10;;;;;;;16.86;28.24;100781.41;5093235;28;20031;-46
2023/02/10 11:16:11;;;;;;;30.67;27.52;;;;;;;17.57;27.12;100782.19;5093237;28;20024;-46
2023/02/10 11:18:55;;;;;;;37.00;28.80;;;;;;;17.94;27.12;100776.69;5091902;28;20024;-46
2023/02/10 11:21:38;;;;;;;37.40;28.85;;;;;;;18.46;26.13;100767.28;5093168;28;20024;-46
2023/02/10 11:24:30;;;;;;;41.55;32.95;;;;;;;18.89;26.28;100768.81;5091799;28;20082;-46
2023/02/10 11:30:38;;;;;;;37.45;29.67;;;;;;;18.97;26.07;100760.63;5092975;28;20054;-47
2023/02/10 11:33:41;;;;;;;38.00;29.47;;;;;;;19.11;25.85;100753.44;5088732;28;20032;-47
2023/02/10 11:36:26;;;;;;;34.60;29.23;;;;;;;19.11;25.81;100756.13;5092737;28;20044;-46
2023/02/10 11:39:01;;;;;;;39.90;31.23;;;;;;;19.44;25.82;100756.09;5092854;28;20518;-46
2023/02/10 11:41:33;;;;;;;37.25;31.33;;;;;;;19.71;25.12;100761.38;5091350;28;20115;-46
2023/02/10 11:44:33;;;;;;;38.17;31.30;;;;;;;19.74;25.46;100753.78;5108318;28;20131;-47
2023/02/10 11:47:13;;;;;;;35.35;31.75;;;;;;;19.66;25.00;100758.47;5092589;28;20473;-46
2023/02/10 11:49:49;;;;;;;34.92;30.23;;;;;;;19.69;25.11;100764.22;5092607;28;20536;-46
2023/02/10 11:52:19;;;;;;;36.58;30.95;;;;;;;19.62;25.22;100757.25;5092537;28;20480;-46
2023/02/10 11:54:46;;;;;;;36.28;30.98;;;;;;;19.63;25.03;100759.72;5092536;28;20026;-46
2023/02/10 12:01:36;;;;;;;40.03;31.55;;;;;;;19.93;25.26;100748.59;5092737;28;20165;-47
2023/02/10 12:04:35;;;;;;;38.92;31.67;;;;;;;20.14;24.80;100744.81;5064574;28;20059;-46
2023/02/10 12:07:42;;;;;;;116.05;104.90;;;;;;;19.81;24.92;100744.97;5092337;28;20031;-46
2023/02/10 12:10:44;;;;;;;45.10;34.58;;;;;;;19.84;25.20;100741.84;5074760;28;20111;-46
2023/02/10 12:13:32;;;;;;;38.92;31.48;;;;;;;19.70;24.96;100746.41;5092297;28;20036;-46
2023/02/10 12:16:42;;;;;;;40.50;31.63;;;;;;;19.38;25.33;100740.94;5092230;28;20444;-46
2023/02/10 12:19:43;;;;;;;37.88;30.75;;;;;;;19.40;25.27;100738.91;5092137;28;20081;-46